Camp Creek, West Virginia
Current Conditions -  °F | °C
As of 10:03 AM on Tuesday 21 Oct 2014 (Local Time) from KBLF Reporting Station
Overcast Overcast  
Wind Chill: 52°   Ceiling: 900
Heat Index: 52°   Visibility: 10mi
Dew Point: 47°   Wind: 10mph
Humidity: 83%   Direction: 280°W
Pressure: 29.95"   Gusts: NA
Location:  37.49°N, 81.1°W
Report Text: KBLF 211403Z AUTO 28009KT 10SM OVC009 11/08 A2995 RMK AO2 T01110083
Loading
Personal Weather Stations






























Interactive Weather Map
Tropical Storm Tracking
New forecast layout! Learn more

10-Day Weather Forecast

Advertisements
Track Severe Weather on mobile